Vallican, Canada
Current Conditions -  °F | °C
As of 9:00 PM on Wednesday 22 Oct 2014 (Local Time) from CYCG Reporting Station
Rain Showers Rain Showers  
Wind Chill: 44°   Ceiling: 3700
Heat Index: 46°   Visibility: 8mi
Dew Point: 45°   Wind: 5mph
Humidity: 93%   Direction: 330°NNW
Pressure: 29.75"   Gusts: NA
Location:  49.57°N, 117.65°W
Report Text: CYCG 230400Z 33004KT 290V010 8SM -SHRA SCT023 OVC037 08/07 A2975 RMK SC3SC5 LAST OBS/NEXT 231300UTC SLP081
Loading
Personal Weather Stations






























Interactive Weather Map
Tropical Storm Tracking
New forecast layout! Learn more

10-Day Weather Forecast

Advertisements
Track Severe Weather on mobile